sensor_id;sensor_type;location;lat;lon;timestamp;P1;durP1;ratioP1;P2;durP2;ratioP2
83443;SDS011;73374;41.170;-96.156;2024-02-15T00:01:12;4.85;;;1.20;;
83443;SDS011;73374;41.170;-96.156;2024-02-15T00:06:16;5.43;;;1.60;;
83443;SDS011;73374;41.170;-96.156;2024-02-15T00:11:19;5.03;;;1.55;;
83443;SDS011;73374;41.170;-96.156;2024-02-15T00:16:24;5.50;;;1.90;;
83443;SDS011;73374;41.170;-96.156;2024-02-15T00:21:27;7.68;;;1.88;;
83443;SDS011;73374;41.170;-96.156;2024-02-15T00:26:30;4.95;;;1.40;;
83443;SDS011;73374;41.170;-96.156;2024-02-15T00:31:35;3.35;;;1.33;;
83443;SDS011;73374;41.170;-96.156;2024-02-15T00:36:41;4.82;;;0.93;;
83443;SDS011;73374;41.170;-96.156;2024-02-15T00:41:45;6.72;;;1.40;;
83443;SDS011;73374;41.170;-96.156;2024-02-15T00:46:49;3.60;;;1.30;;
83443;SDS011;73374;41.170;-96.156;2024-02-15T00:51:52;2.50;;;1.00;;
83443;SDS011;73374;41.170;-96.156;2024-02-15T00:56:55;5.38;;;1.27;;
83443;SDS011;73374;41.170;-96.156;2024-02-15T01:02:00;3.85;;;1.08;;
83443;SDS011;73374;41.170;-96.156;2024-02-15T01:07:03;5.05;;;1.30;;
83443;SDS011;73374;41.170;-96.156;2024-02-15T01:12:06;8.38;;;1.85;;
83443;SDS011;73374;41.170;-96.156;2024-02-15T01:17:12;7.57;;;1.40;;
83443;SDS011;73374;41.170;-96.156;2024-02-15T01:22:15;5.50;;;1.40;;
83443;SDS011;73374;41.170;-96.156;2024-02-15T01:27:18;5.80;;;1.80;;
83443;SDS011;73374;41.170;-96.156;2024-02-15T01:32:23;9.35;;;1.40;;
83443;SDS011;73374;41.170;-96.156;2024-02-15T01:37:26;5.35;;;1.10;;
83443;SDS011;73374;41.170;-96.156;2024-02-15T01:42:29;3.70;;;1.15;;
83443;SDS011;73374;41.170;-96.156;2024-02-15T01:47:34;5.13;;;1.33;;
83443;SDS011;73374;41.170;-96.156;2024-02-15T01:52:37;3.17;;;0.70;;
83443;SDS011;73374;41.170;-96.156;2024-02-15T01:57:43;3.28;;;0.90;;
83443;SDS011;73374;41.170;-96.156;2024-02-15T02:02:48;2.08;;;0.70;;
83443;SDS011;73374;41.170;-96.156;2024-02-15T02:07:51;5.60;;;1.40;;
83443;SDS011;73374;41.170;-96.156;2024-02-15T02:12:55;9.82;;;1.52;;
83443;SDS011;73374;41.170;-96.156;2024-02-15T02:18:00;6.28;;;2.83;;
83443;SDS011;73374;41.170;-96.156;2024-02-15T02:23:04;6.60;;;3.15;;
83443;SDS011;73374;41.170;-96.156;2024-02-15T02:28:11;11.38;;;4.72;;
83443;SDS011;73374;41.170;-96.156;2024-02-15T02:33:15;13.23;;;4.72;;
83443;SDS011;73374;41.170;-96.156;2024-02-15T02:38:18;8.02;;;5.47;;
83443;SDS011;73374;41.170;-96.156;2024-02-15T02:43:23;11.60;;;6.68;;
83443;SDS011;73374;41.170;-96.156;2024-02-15T02:48:26;10.05;;;5.97;;
83443;SDS011;73374;41.170;-96.156;2024-02-15T02:53:29;13.40;;;6.57;;
83443;SDS011;73374;41.170;-96.156;2024-02-15T02:58:34;10.25;;;6.00;;
83443;SDS011;73374;41.170;-96.156;2024-02-15T03:03:37;11.70;;;5.35;;
83443;SDS011;73374;41.170;-96.156;2024-02-15T03:08:40;8.50;;;5.70;;
83443;SDS011;73374;41.170;-96.156;2024-02-15T03:13:44;8.40;;;5.60;;
83443;SDS011;73374;41.170;-96.156;2024-02-15T03:18:47;9.35;;;6.90;;
83443;SDS011;73374;41.170;-96.156;2024-02-15T03:23:51;8.35;;;5.57;;
83443;SDS011;73374;41.170;-96.156;2024-02-15T03:28:56;7.10;;;4.57;;
83443;SDS011;73374;41.170;-96.156;2024-02-15T03:33:59;5.05;;;4.28;;
83443;SDS011;73374;41.170;-96.156;2024-02-15T03:39:02;5.22;;;3.95;;
83443;SDS011;73374;41.170;-96.156;2024-02-15T03:44:07;6.45;;;3.92;;
83443;SDS011;73374;41.170;-96.156;2024-02-15T03:49:10;3.95;;;2.88;;
83443;SDS011;73374;41.170;-96.156;2024-02-15T03:54:13;3.53;;;2.88;;
83443;SDS011;73374;41.170;-96.156;2024-02-15T03:59:17;4.70;;;3.33;;
83443;SDS011;73374;41.170;-96.156;2024-02-15T04:04:21;3.70;;;2.70;;
83443;SDS011;73374;41.170;-96.156;2024-02-15T04:09:24;4.18;;;3.50;;
83443;SDS011;73374;41.170;-96.156;2024-02-15T04:14:29;4.25;;;2.97;;
83443;SDS011;73374;41.170;-96.156;2024-02-15T04:19:32;2.92;;;2.20;;
83443;SDS011;73374;41.170;-96.156;2024-02-15T04:24:35;2.58;;;2.35;;
83443;SDS011;73374;41.170;-96.156;2024-02-15T04:29:40;2.92;;;2.40;;
83443;SDS011;73374;41.170;-96.156;2024-02-15T04:34:43;3.58;;;2.40;;
83443;SDS011;73374;41.170;-96.156;2024-02-15T04:39:46;5.18;;;2.20;;
83443;SDS011;73374;41.170;-96.156;2024-02-15T04:44:51;2.85;;;1.75;;
83443;SDS011;73374;41.170;-96.156;2024-02-15T04:49:54;3.15;;;1.95;;
83443;SDS011;73374;41.170;-96.156;2024-02-15T04:54:57;3.42;;;1.60;;
83443;SDS011;73374;41.170;-96.156;2024-02-15T05:00:01;1.60;;;1.30;;
83443;SDS011;73374;41.170;-96.156;2024-02-15T05:05:05;3.00;;;1.30;;
83443;SDS011;73374;41.170;-96.156;2024-02-15T05:10:09;2.00;;;1.50;;
83443;SDS011;73374;41.170;-96.156;2024-02-15T05:15:13;1.20;;;0.90;;
83443;SDS011;73374;41.170;-96.156;2024-02-15T05:20:18;1.52;;;1.05;;
83443;SDS011;73374;41.170;-96.156;2024-02-15T05:25:21;2.80;;;1.23;;
83443;SDS011;73374;41.170;-96.156;2024-02-15T05:30:28;1.35;;;0.95;;
83443;SDS011;73374;41.170;-96.156;2024-02-15T05:35:31;1.95;;;1.25;;
83443;SDS011;73374;41.170;-96.156;2024-02-15T05:40:34;2.63;;;1.33;;
83443;SDS011;73374;41.170;-96.156;2024-02-15T05:45:39;1.30;;;1.00;;
83443;SDS011;73374;41.170;-96.156;2024-02-15T05:50:42;2.53;;;1.45;;
83443;SDS011;73374;41.170;-96.156;2024-02-15T05:55:45;1.75;;;1.60;;
83443;SDS011;73374;41.170;-96.156;2024-02-15T06:00:50;2.15;;;1.33;;
83443;SDS011;73374;41.170;-96.156;2024-02-15T06:05:53;2.40;;;1.83;;
83443;SDS011;73374;41.170;-96.156;2024-02-15T06:10:57;1.48;;;1.27;;
83443;SDS011;73374;41.170;-96.156;2024-02-15T06:16:01;2.28;;;1.50;;
83443;SDS011;73374;41.170;-96.156;2024-02-15T06:21:05;0.93;;;0.73;;
83443;SDS011;73374;41.170;-96.156;2024-02-15T06:26:08;1.63;;;1.20;;
83443;SDS011;73374;41.170;-96.156;2024-02-15T06:36:15;1.52;;;0.93;;
83443;SDS011;73374;41.170;-96.156;2024-02-15T06:41:19;1.50;;;1.17;;
83443;SDS011;73374;41.170;-96.156;2024-02-15T06:46:26;1.23;;;0.80;;
83443;SDS011;73374;41.170;-96.156;2024-02-15T06:51:29;1.25;;;0.93;;
83443;SDS011;73374;41.170;-96.156;2024-02-15T06:56:35;1.60;;;1.20;;
83443;SDS011;73374;41.170;-96.156;2024-02-15T07:01:41;1.40;;;1.00;;
83443;SDS011;73374;41.170;-96.156;2024-02-15T07:06:44;1.85;;;1.35;;
83443;SDS011;73374;41.170;-96.156;2024-02-15T07:16:54;2.00;;;1.60;;
83443;SDS011;73374;41.170;-96.156;2024-02-15T07:21:57;2.40;;;1.65;;
83443;SDS011;73374;41.170;-96.156;2024-02-15T07:27:00;2.92;;;2.00;;
83443;SDS011;73374;41.170;-96.156;2024-02-15T07:32:05;1.98;;;1.33;;
83443;SDS011;73374;41.170;-96.156;2024-02-15T07:37:08;2.38;;;2.17;;
83443;SDS011;73374;41.170;-96.156;2024-02-15T07:42:11;4.78;;;1.40;;
83443;SDS011;73374;41.170;-96.156;2024-02-15T07:47:16;1.00;;;0.73;;
83443;SDS011;73374;41.170;-96.156;2024-02-15T07:52:19;1.30;;;1.00;;
83443;SDS011;73374;41.170;-96.156;2024-02-15T07:57:22;1.67;;;1.42;;
83443;SDS011;73374;41.170;-96.156;2024-02-15T08:02:27;1.60;;;1.02;;
83443;SDS011;73374;41.170;-96.156;2024-02-15T08:07:30;2.17;;;1.00;;
83443;SDS011;73374;41.170;-96.156;2024-02-15T08:12:33;1.42;;;1.05;;
83443;SDS011;73374;41.170;-96.156;2024-02-15T08:17:38;1.75;;;1.13;;
83443;SDS011;73374;41.170;-96.156;2024-02-15T08:22:42;1.77;;;1.30;;
83443;SDS011;73374;41.170;-96.156;2024-02-15T08:27:47;1.45;;;1.20;;
83443;SDS011;73374;41.170;-96.156;2024-02-15T08:32:52;1.75;;;1.13;;
83443;SDS011;73374;41.170;-96.156;2024-02-15T08:37:55;1.67;;;1.35;;
83443;SDS011;73374;41.170;-96.156;2024-02-15T08:42:58;1.63;;;1.15;;
83443;SDS011;73374;41.170;-96.156;2024-02-15T08:48:03;2.05;;;1.33;;
83443;SDS011;73374;41.170;-96.156;2024-02-15T08:53:07;1.92;;;1.10;;
83443;SDS011;73374;41.170;-96.156;2024-02-15T08:58:10;1.30;;;1.05;;
83443;SDS011;73374;41.170;-96.156;2024-02-15T09:03:14;2.38;;;1.40;;
83443;SDS011;73374;41.170;-96.156;2024-02-15T09:08:18;2.20;;;1.67;;
83443;SDS011;73374;41.170;-96.156;2024-02-15T09:13:21;2.38;;;2.00;;
83443;SDS011;73374;41.170;-96.156;2024-02-15T09:18:25;1.67;;;1.42;;
83443;SDS011;73374;41.170;-96.156;2024-02-15T09:23:28;2.22;;;1.83;;
83443;SDS011;73374;41.170;-96.156;2024-02-15T09:28:31;2.13;;;1.92;;
83443;SDS011;73374;41.170;-96.156;2024-02-15T09:33:36;2.42;;;2.03;;
83443;SDS011;73374;41.170;-96.156;2024-02-15T09:38:39;2.60;;;2.00;;
83443;SDS011;73374;41.170;-96.156;2024-02-15T09:43:42;2.65;;;1.73;;
83443;SDS011;73374;41.170;-96.156;2024-02-15T09:48:49;2.85;;;2.20;;
83443;SDS011;73374;41.170;-96.156;2024-02-15T09:53:53;2.95;;;1.83;;
83443;SDS011;73374;41.170;-96.156;2024-02-15T09:58:59;2.30;;;1.90;;
83443;SDS011;73374;41.170;-96.156;2024-02-15T10:04:05;3.20;;;2.15;;
83443;SDS011;73374;41.170;-96.156;2024-02-15T10:09:24;3.30;;;2.45;;
83443;SDS011;73374;41.170;-96.156;2024-02-15T10:14:30;2.75;;;2.03;;
83443;SDS011;73374;41.170;-96.156;2024-02-15T10:19:35;2.58;;;1.85;;
83443;SDS011;73374;41.170;-96.156;2024-02-15T10:24:38;2.47;;;2.20;;
83443;SDS011;73374;41.170;-96.156;2024-02-15T10:29:41;2.70;;;2.15;;
83443;SDS011;73374;41.170;-96.156;2024-02-15T10:34:46;3.22;;;2.42;;
83443;SDS011;73374;41.170;-96.156;2024-02-15T10:39:55;3.40;;;2.17;;
83443;SDS011;73374;41.170;-96.156;2024-02-15T10:45:07;3.90;;;1.90;;
83443;SDS011;73374;41.170;-96.156;2024-02-15T10:50:13;4.00;;;2.42;;
83443;SDS011;73374;41.170;-96.156;2024-02-15T10:55:17;5.70;;;3.38;;
83443;SDS011;73374;41.170;-96.156;2024-02-15T11:00:30;2.65;;;1.85;;
83443;SDS011;73374;41.170;-96.156;2024-02-15T11:05:37;3.50;;;2.63;;
83443;SDS011;73374;41.170;-96.156;2024-02-15T11:10:40;4.35;;;3.20;;
83443;SDS011;73374;41.170;-96.156;2024-02-15T11:15:45;3.13;;;2.60;;
83443;SDS011;73374;41.170;-96.156;2024-02-15T11:20:50;5.70;;;3.40;;
83443;SDS011;73374;41.170;-96.156;2024-02-15T11:25:54;4.05;;;2.88;;
83443;SDS011;73374;41.170;-96.156;2024-02-15T11:36:04;3.67;;;2.58;;
83443;SDS011;73374;41.170;-96.156;2024-02-15T11:41:08;4.65;;;3.28;;
83443;SDS011;73374;41.170;-96.156;2024-02-15T11:46:12;6.90;;;3.58;;
83443;SDS011;73374;41.170;-96.156;2024-02-15T11:51:30;3.33;;;2.22;;
83443;SDS011;73374;41.170;-96.156;2024-02-15T11:56:50;3.65;;;2.47;;
83443;SDS011;73374;41.170;-96.156;2024-02-15T12:01:56;4.10;;;2.78;;
83443;SDS011;73374;41.170;-96.156;2024-02-15T12:12:04;2.92;;;2.17;;
83443;SDS011;73374;41.170;-96.156;2024-02-15T12:17:07;5.03;;;2.72;;
83443;SDS011;73374;41.170;-96.156;2024-02-15T12:22:13;4.72;;;2.35;;
83443;SDS011;73374;41.170;-96.156;2024-02-15T12:27:16;2.03;;;1.33;;
83443;SDS011;73374;41.170;-96.156;2024-02-15T12:32:20;4.13;;;1.88;;
83443;SDS011;73374;41.170;-96.156;2024-02-15T12:37:25;3.38;;;1.60;;
83443;SDS011;73374;41.170;-96.156;2024-02-15T12:42:28;4.28;;;2.03;;
83443;SDS011;73374;41.170;-96.156;2024-02-15T12:47:32;4.32;;;2.05;;
83443;SDS011;73374;41.170;-96.156;2024-02-15T12:52:37;3.25;;;2.22;;
83443;SDS011;73374;41.170;-96.156;2024-02-15T12:57:42;5.32;;;2.78;;
83443;SDS011;73374;41.170;-96.156;2024-02-15T13:02:46;3.58;;;1.90;;
83443;SDS011;73374;41.170;-96.156;2024-02-15T13:07:53;2.83;;;1.80;;
83443;SDS011;73374;41.170;-96.156;2024-02-15T13:12:56;3.00;;;1.83;;
83443;SDS011;73374;41.170;-96.156;2024-02-15T13:18:00;6.68;;;3.33;;
83443;SDS011;73374;41.170;-96.156;2024-02-15T13:23:05;2.85;;;1.95;;
83443;SDS011;73374;41.170;-96.156;2024-02-15T13:28:09;5.97;;;3.85;;
83443;SDS011;73374;41.170;-96.156;2024-02-15T13:33:13;2.13;;;1.23;;
83443;SDS011;73374;41.170;-96.156;2024-02-15T13:38:18;3.50;;;2.58;;
83443;SDS011;73374;41.170;-96.156;2024-02-15T13:43:21;3.35;;;2.05;;
83443;SDS011;73374;41.170;-96.156;2024-02-15T13:48:24;5.90;;;3.55;;
83443;SDS011;73374;41.170;-96.156;2024-02-15T13:53:31;3.60;;;2.28;;
83443;SDS011;73374;41.170;-96.156;2024-02-15T13:58:34;6.00;;;2.80;;
83443;SDS011;73374;41.170;-96.156;2024-02-15T14:03:38;7.95;;;3.22;;
83443;SDS011;73374;41.170;-96.156;2024-02-15T14:08:42;4.60;;;2.33;;
83443;SDS011;73374;41.170;-96.156;2024-02-15T14:13:45;6.32;;;3.15;;
83443;SDS011;73374;41.170;-96.156;2024-02-15T14:18:49;7.07;;;3.65;;
83443;SDS011;73374;41.170;-96.156;2024-02-15T14:23:53;5.93;;;3.28;;
83443;SDS011;73374;41.170;-96.156;2024-02-15T14:28:56;6.25;;;3.47;;
83443;SDS011;73374;41.170;-96.156;2024-02-15T14:33:59;5.63;;;4.20;;
83443;SDS011;73374;41.170;-96.156;2024-02-15T14:39:04;5.57;;;4.30;;
83443;SDS011;73374;41.170;-96.156;2024-02-15T14:44:07;8.07;;;4.68;;
83443;SDS011;73374;41.170;-96.156;2024-02-15T14:49:10;7.18;;;4.05;;
83443;SDS011;73374;41.170;-96.156;2024-02-15T14:54:15;5.82;;;3.75;;
83443;SDS011;73374;41.170;-96.156;2024-02-15T14:59:24;4.40;;;3.45;;
83443;SDS011;73374;41.170;-96.156;2024-02-15T15:04:27;6.30;;;4.50;;
83443;SDS011;73374;41.170;-96.156;2024-02-15T15:09:32;5.03;;;4.03;;
83443;SDS011;73374;41.170;-96.156;2024-02-15T15:14:35;5.10;;;3.60;;
83443;SDS011;73374;41.170;-96.156;2024-02-15T15:19:38;5.03;;;3.95;;
83443;SDS011;73374;41.170;-96.156;2024-02-15T15:24:43;4.10;;;2.95;;
83443;SDS011;73374;41.170;-96.156;2024-02-15T15:29:46;5.97;;;3.45;;
83443;SDS011;73374;41.170;-96.156;2024-02-15T15:34:49;5.80;;;4.35;;
83443;SDS011;73374;41.170;-96.156;2024-02-15T15:39:53;5.88;;;4.10;;
83443;SDS011;73374;41.170;-96.156;2024-02-15T15:44:57;4.30;;;3.40;;
83443;SDS011;73374;41.170;-96.156;2024-02-15T15:50:00;5.15;;;3.45;;
83443;SDS011;73374;41.170;-96.156;2024-02-15T15:55:05;5.32;;;3.60;;
83443;SDS011;73374;41.170;-96.156;2024-02-15T16:00:10;5.45;;;3.60;;
83443;SDS011;73374;41.170;-96.156;2024-02-15T16:05:14;4.68;;;3.42;;
83443;SDS011;73374;41.170;-96.156;2024-02-15T16:10:19;4.20;;;3.65;;
83443;SDS011;73374;41.170;-96.156;2024-02-15T16:15:22;2.97;;;2.67;;
83443;SDS011;73374;41.170;-96.156;2024-02-15T16:20:26;3.80;;;3.17;;
83443;SDS011;73374;41.170;-96.156;2024-02-15T16:25:31;2.88;;;2.50;;
83443;SDS011;73374;41.170;-96.156;2024-02-15T16:30:34;3.78;;;2.72;;
83443;SDS011;73374;41.170;-96.156;2024-02-15T16:35:37;2.92;;;2.60;;
83443;SDS011;73374;41.170;-96.156;2024-02-15T16:40:42;2.60;;;2.40;;
83443;SDS011;73374;41.170;-96.156;2024-02-15T16:45:45;2.72;;;2.53;;
83443;SDS011;73374;41.170;-96.156;2024-02-15T16:50:48;3.47;;;2.60;;
83443;SDS011;73374;41.170;-96.156;2024-02-15T16:55:53;3.80;;;2.45;;
83443;SDS011;73374;41.170;-96.156;2024-02-15T17:00:56;3.72;;;2.78;;
83443;SDS011;73374;41.170;-96.156;2024-02-15T17:05:59;3.10;;;2.80;;
83443;SDS011;73374;41.170;-96.156;2024-02-15T17:11:04;3.33;;;2.50;;
83443;SDS011;73374;41.170;-96.156;2024-02-15T17:16:07;4.60;;;2.60;;
83443;SDS011;73374;41.170;-96.156;2024-02-15T17:21:10;2.22;;;2.03;;
83443;SDS011;73374;41.170;-96.156;2024-02-15T17:26:15;3.35;;;2.58;;
83443;SDS011;73374;41.170;-96.156;2024-02-15T17:31:18;3.03;;;2.80;;
83443;SDS011;73374;41.170;-96.156;2024-02-15T17:36:21;2.45;;;2.25;;
83443;SDS011;73374;41.170;-96.156;2024-02-15T17:41:25;5.47;;;2.35;;
83443;SDS011;73374;41.170;-96.156;2024-02-15T17:46:28;3.75;;;1.77;;
83443;SDS011;73374;41.170;-96.156;2024-02-15T17:51:33;5.97;;;2.70;;
83443;SDS011;73374;41.170;-96.156;2024-02-15T17:56:38;3.30;;;2.10;;
83443;SDS011;73374;41.170;-96.156;2024-02-15T18:01:41;2.20;;;2.00;;
83443;SDS011;73374;41.170;-96.156;2024-02-15T18:06:47;2.70;;;2.15;;
83443;SDS011;73374;41.170;-96.156;2024-02-15T18:11:52;2.88;;;2.22;;
83443;SDS011;73374;41.170;-96.156;2024-02-15T18:16:55;2.65;;;1.92;;
83443;SDS011;73374;41.170;-96.156;2024-02-15T18:21:58;2.10;;;1.85;;
83443;SDS011;73374;41.170;-96.156;2024-02-15T18:27:02;2.40;;;2.20;;
83443;SDS011;73374;41.170;-96.156;2024-02-15T18:32:06;2.35;;;2.08;;
83443;SDS011;73374;41.170;-96.156;2024-02-15T18:37:09;2.13;;;1.92;;
83443;SDS011;73374;41.170;-96.156;2024-02-15T18:42:14;1.95;;;1.75;;
83443;SDS011;73374;41.170;-96.156;2024-02-15T18:47:17;2.00;;;1.65;;
83443;SDS011;73374;41.170;-96.156;2024-02-15T18:52:20;4.07;;;2.00;;
83443;SDS011;73374;41.170;-96.156;2024-02-15T18:57:25;3.03;;;1.85;;
83443;SDS011;73374;41.170;-96.156;2024-02-15T19:02:29;2.92;;;1.90;;
83443;SDS011;73374;41.170;-96.156;2024-02-15T19:07:32;1.80;;;1.70;;
83443;SDS011;73374;41.170;-96.156;2024-02-15T19:12:36;2.45;;;1.60;;
83443;SDS011;73374;41.170;-96.156;2024-02-15T19:17:40;3.65;;;1.58;;
83443;SDS011;73374;41.170;-96.156;2024-02-15T19:22:43;2.92;;;1.60;;
83443;SDS011;73374;41.170;-96.156;2024-02-15T19:27:48;3.10;;;1.60;;
83443;SDS011;73374;41.170;-96.156;2024-02-15T19:32:51;4.10;;;1.90;;
83443;SDS011;73374;41.170;-96.156;2024-02-15T19:37:54;2.28;;;1.65;;
83443;SDS011;73374;41.170;-96.156;2024-02-15T19:42:59;1.50;;;1.40;;
83443;SDS011;73374;41.170;-96.156;2024-02-15T19:48:02;1.63;;;1.23;;
83443;SDS011;73374;41.170;-96.156;2024-02-15T19:53:06;1.55;;;1.30;;
83443;SDS011;73374;41.170;-96.156;2024-02-15T19:58:11;1.65;;;1.55;;
83443;SDS011;73374;41.170;-96.156;2024-02-15T20:03:14;3.53;;;1.58;;
83443;SDS011;73374;41.170;-96.156;2024-02-15T20:08:17;2.78;;;1.50;;
83443;SDS011;73374;41.170;-96.156;2024-02-15T20:13:22;3.63;;;1.70;;
83443;SDS011;73374;41.170;-96.156;2024-02-15T20:18:25;1.95;;;1.35;;
83443;SDS011;73374;41.170;-96.156;2024-02-15T20:23:28;1.48;;;1.38;;
83443;SDS011;73374;41.170;-96.156;2024-02-15T20:28:33;5.53;;;1.90;;
83443;SDS011;73374;41.170;-96.156;2024-02-15T20:33:36;3.28;;;1.40;;
83443;SDS011;73374;41.170;-96.156;2024-02-15T20:38:40;1.90;;;1.50;;
83443;SDS011;73374;41.170;-96.156;2024-02-15T20:43:45;1.77;;;1.52;;
83443;SDS011;73374;41.170;-96.156;2024-02-15T20:48:48;2.35;;;1.40;;
83443;SDS011;73374;41.170;-96.156;2024-02-15T20:53:51;2.15;;;1.27;;
83443;SDS011;73374;41.170;-96.156;2024-02-15T20:58:55;6.18;;;1.40;;
83443;SDS011;73374;41.170;-96.156;2024-02-15T21:03:59;1.20;;;1.10;;
83443;SDS011;73374;41.170;-96.156;2024-02-15T21:09:02;2.30;;;1.20;;
83443;SDS011;73374;41.170;-96.156;2024-02-15T21:14:07;1.35;;;1.20;;
83443;SDS011;73374;41.170;-96.156;2024-02-15T21:19:10;3.17;;;1.63;;
83443;SDS011;73374;41.170;-96.156;2024-02-15T21:24:13;2.17;;;1.67;;
83443;SDS011;73374;41.170;-96.156;2024-02-15T21:29:18;1.80;;;1.40;;
83443;SDS011;73374;41.170;-96.156;2024-02-15T21:34:21;3.28;;;1.30;;
83443;SDS011;73374;41.170;-96.156;2024-02-15T21:39:24;2.08;;;1.20;;
83443;SDS011;73374;41.170;-96.156;2024-02-15T21:44:29;1.63;;;1.30;;
83443;SDS011;73374;41.170;-96.156;2024-02-15T21:49:32;1.30;;;1.20;;
83443;SDS011;73374;41.170;-96.156;2024-02-15T21:54:35;1.73;;;1.20;;
83443;SDS011;73374;41.170;-96.156;2024-02-15T21:59:40;1.42;;;1.25;;
83443;SDS011;73374;41.170;-96.156;2024-02-15T22:04:43;2.08;;;1.20;;
83443;SDS011;73374;41.170;-96.156;2024-02-15T22:09:46;2.17;;;1.20;;
83443;SDS011;73374;41.170;-96.156;2024-02-15T22:14:51;2.78;;;1.15;;
83443;SDS011;73374;41.170;-96.156;2024-02-15T22:19:54;1.60;;;1.08;;
83443;SDS011;73374;41.170;-96.156;2024-02-15T22:24:57;1.17;;;0.90;;
83443;SDS011;73374;41.170;-96.156;2024-02-15T22:30:02;2.58;;;1.00;;
83443;SDS011;73374;41.170;-96.156;2024-02-15T22:35:06;5.88;;;1.13;;
83443;SDS011;73374;41.170;-96.156;2024-02-15T22:40:09;2.97;;;1.13;;
83443;SDS011;73374;41.170;-96.156;2024-02-15T22:45:14;2.05;;;1.05;;
83443;SDS011;73374;41.170;-96.156;2024-02-15T22:50:18;1.83;;;1.30;;
83443;SDS011;73374;41.170;-96.156;2024-02-15T22:55:21;1.48;;;1.27;;
83443;SDS011;73374;41.170;-96.156;2024-02-15T23:00:25;3.55;;;1.50;;
83443;SDS011;73374;41.170;-96.156;2024-02-15T23:05:29;1.40;;;1.30;;
83443;SDS011;73374;41.170;-96.156;2024-02-15T23:10:32;2.60;;;1.30;;
83443;SDS011;73374;41.170;-96.156;2024-02-15T23:15:37;1.65;;;1.30;;
83443;SDS011;73374;41.170;-96.156;2024-02-15T23:20:40;3.67;;;1.50;;
83443;SDS011;73374;41.170;-96.156;2024-02-15T23:25:43;2.60;;;1.35;;
83443;SDS011;73374;41.170;-96.156;2024-02-15T23:30:48;3.30;;;1.20;;
83443;SDS011;73374;41.170;-96.156;2024-02-15T23:35:51;1.52;;;0.88;;
83443;SDS011;73374;41.170;-96.156;2024-02-15T23:40:54;3.33;;;1.30;;
83443;SDS011;73374;41.170;-96.156;2024-02-15T23:45:59;1.55;;;1.20;;
83443;SDS011;73374;41.170;-96.156;2024-02-15T23:51:02;1.48;;;0.90;;
83443;SDS011;73374;41.170;-96.156;2024-02-15T23:56:05;3.67;;;1.60;;
